sensor_id;sensor_type;location;lat;lon;timestamp;P1;durP1;ratioP1;P2;durP2;ratioP2
61356;SDS011;47227;46.752;23.576;2023-10-08T00:00:49;5.20;;;3.50;;
61356;SDS011;47227;46.752;23.576;2023-10-08T00:03:37;5.90;;;3.50;;
61356;SDS011;47227;46.752;23.576;2023-10-08T00:06:06;5.60;;;3.50;;
61356;SDS011;47227;46.752;23.576;2023-10-08T00:08:34;4.80;;;3.00;;
61356;SDS011;47227;46.752;23.576;2023-10-08T00:11:02;7.80;;;4.00;;
61356;SDS011;47227;46.752;23.576;2023-10-08T00:13:34;6.70;;;3.40;;
61356;SDS011;47227;46.752;23.576;2023-10-08T00:16:10;5.40;;;3.40;;
61356;SDS011;47227;46.752;23.576;2023-10-08T00:18:39;9.50;;;3.50;;
61356;SDS011;47227;46.752;23.576;2023-10-08T00:21:10;8.30;;;3.50;;
61356;SDS011;47227;46.752;23.576;2023-10-08T00:23:58;5.50;;;3.30;;
61356;SDS011;47227;46.752;23.576;2023-10-08T00:26:28;5.90;;;3.50;;
61356;SDS011;47227;46.752;23.576;2023-10-08T00:28:59;5.80;;;3.80;;
61356;SDS011;47227;46.752;23.576;2023-10-08T00:31:41;8.90;;;3.40;;
61356;SDS011;47227;46.752;23.576;2023-10-08T00:34:13;9.40;;;4.40;;
61356;SDS011;47227;46.752;23.576;2023-10-08T00:36:43;7.10;;;3.20;;
61356;SDS011;47227;46.752;23.576;2023-10-08T00:39:13;6.90;;;3.70;;
61356;SDS011;47227;46.752;23.576;2023-10-08T00:41:43;5.70;;;3.10;;
61356;SDS011;47227;46.752;23.576;2023-10-08T00:44:12;9.80;;;3.40;;
61356;SDS011;47227;46.752;23.576;2023-10-08T00:46:51;7.00;;;2.90;;
61356;SDS011;47227;46.752;23.576;2023-10-08T00:49:21;4.70;;;2.70;;
61356;SDS011;47227;46.752;23.576;2023-10-08T00:51:53;4.50;;;3.20;;
61356;SDS011;47227;46.752;23.576;2023-10-08T00:54:43;5.60;;;2.80;;
61356;SDS011;47227;46.752;23.576;2023-10-08T00:57:25;4.70;;;2.90;;
61356;SDS011;47227;46.752;23.576;2023-10-08T00:59:54;5.90;;;3.30;;
61356;SDS011;47227;46.752;23.576;2023-10-08T01:02:26;3.70;;;2.70;;
61356;SDS011;47227;46.752;23.576;2023-10-08T01:05:11;6.50;;;3.40;;
61356;SDS011;47227;46.752;23.576;2023-10-08T01:07:41;5.90;;;2.70;;
61356;SDS011;47227;46.752;23.576;2023-10-08T01:10:12;6.30;;;2.90;;
61356;SDS011;47227;46.752;23.576;2023-10-08T01:12:41;5.20;;;2.60;;
61356;SDS011;47227;46.752;23.576;2023-10-08T01:15:22;5.80;;;2.80;;
61356;SDS011;47227;46.752;23.576;2023-10-08T01:17:51;6.30;;;3.00;;
61356;SDS011;47227;46.752;23.576;2023-10-08T01:20:27;4.90;;;2.70;;
61356;SDS011;47227;46.752;23.576;2023-10-08T01:23:13;5.90;;;2.90;;
61356;SDS011;47227;46.752;23.576;2023-10-08T01:25:45;7.80;;;3.00;;
61356;SDS011;47227;46.752;23.576;2023-10-08T01:28:34;5.10;;;2.80;;
61356;SDS011;47227;46.752;23.576;2023-10-08T01:31:02;8.60;;;3.40;;
61356;SDS011;47227;46.752;23.576;2023-10-08T01:33:32;8.20;;;3.50;;
61356;SDS011;47227;46.752;23.576;2023-10-08T01:36:06;5.20;;;3.10;;
61356;SDS011;47227;46.752;23.576;2023-10-08T01:38:40;5.40;;;3.30;;
61356;SDS011;47227;46.752;23.576;2023-10-08T01:41:09;7.10;;;3.10;;
61356;SDS011;47227;46.752;23.576;2023-10-08T01:43:49;4.40;;;3.00;;
61356;SDS011;47227;46.752;23.576;2023-10-08T01:46:17;8.00;;;3.30;;
61356;SDS011;47227;46.752;23.576;2023-10-08T01:48:49;11.20;;;3.20;;
61356;SDS011;47227;46.752;23.576;2023-10-08T01:51:27;5.00;;;2.90;;
61356;SDS011;47227;46.752;23.576;2023-10-08T01:54:04;7.50;;;3.60;;
61356;SDS011;47227;46.752;23.576;2023-10-08T01:56:39;6.10;;;3.50;;
61356;SDS011;47227;46.752;23.576;2023-10-08T01:59:10;9.30;;;3.60;;
61356;SDS011;47227;46.752;23.576;2023-10-08T02:01:42;4.10;;;2.70;;
61356;SDS011;47227;46.752;23.576;2023-10-08T02:04:13;5.80;;;3.30;;
61356;SDS011;47227;46.752;23.576;2023-10-08T02:06:45;6.10;;;2.90;;
61356;SDS011;47227;46.752;23.576;2023-10-08T02:09:14;5.50;;;3.00;;
61356;SDS011;47227;46.752;23.576;2023-10-08T02:11:45;6.50;;;3.00;;
61356;SDS011;47227;46.752;23.576;2023-10-08T02:14:19;5.80;;;3.20;;
61356;SDS011;47227;46.752;23.576;2023-10-08T02:16:50;5.80;;;2.90;;
61356;SDS011;47227;46.752;23.576;2023-10-08T02:19:24;4.70;;;3.10;;
61356;SDS011;47227;46.752;23.576;2023-10-08T02:21:56;5.70;;;3.10;;
61356;SDS011;47227;46.752;23.576;2023-10-08T02:24:25;4.90;;;3.30;;
61356;SDS011;47227;46.752;23.576;2023-10-08T02:26:54;6.80;;;3.00;;
61356;SDS011;47227;46.752;23.576;2023-10-08T02:29:25;8.80;;;4.00;;
61356;SDS011;47227;46.752;23.576;2023-10-08T02:31:57;6.20;;;3.00;;
61356;SDS011;47227;46.752;23.576;2023-10-08T02:34:26;5.10;;;3.00;;
61356;SDS011;47227;46.752;23.576;2023-10-08T02:36:54;4.40;;;2.60;;
61356;SDS011;47227;46.752;23.576;2023-10-08T02:39:24;7.40;;;3.30;;
61356;SDS011;47227;46.752;23.576;2023-10-08T02:41:54;3.50;;;2.40;;
61356;SDS011;47227;46.752;23.576;2023-10-08T02:44:24;8.00;;;2.70;;
61356;SDS011;47227;46.752;23.576;2023-10-08T02:46:53;5.10;;;3.10;;
61356;SDS011;47227;46.752;23.576;2023-10-08T02:49:22;6.80;;;3.40;;
61356;SDS011;47227;46.752;23.576;2023-10-08T02:51:51;7.50;;;3.50;;
61356;SDS011;47227;46.752;23.576;2023-10-08T02:54:22;8.50;;;3.50;;
61356;SDS011;47227;46.752;23.576;2023-10-08T02:56:58;5.40;;;3.40;;
61356;SDS011;47227;46.752;23.576;2023-10-08T02:59:32;5.70;;;3.10;;
61356;SDS011;47227;46.752;23.576;2023-10-08T03:02:07;8.70;;;3.40;;
61356;SDS011;47227;46.752;23.576;2023-10-08T03:04:51;7.00;;;2.90;;
61356;SDS011;47227;46.752;23.576;2023-10-08T03:07:21;6.60;;;3.10;;
61356;SDS011;47227;46.752;23.576;2023-10-08T03:09:51;6.20;;;2.80;;
61356;SDS011;47227;46.752;23.576;2023-10-08T03:12:32;6.30;;;3.20;;
61356;SDS011;47227;46.752;23.576;2023-10-08T03:15:02;9.20;;;2.70;;
61356;SDS011;47227;46.752;23.576;2023-10-08T03:17:50;5.70;;;3.10;;
61356;SDS011;47227;46.752;23.576;2023-10-08T03:20:19;4.90;;;3.10;;
61356;SDS011;47227;46.752;23.576;2023-10-08T03:23:00;6.50;;;3.20;;
61356;SDS011;47227;46.752;23.576;2023-10-08T03:25:32;5.40;;;2.70;;
61356;SDS011;47227;46.752;23.576;2023-10-08T03:28:09;6.30;;;2.80;;
61356;SDS011;47227;46.752;23.576;2023-10-08T03:30:41;9.80;;;3.20;;
61356;SDS011;47227;46.752;23.576;2023-10-08T03:33:29;4.30;;;2.80;;
61356;SDS011;47227;46.752;23.576;2023-10-08T03:36:02;6.30;;;3.10;;
61356;SDS011;47227;46.752;23.576;2023-10-08T03:38:38;5.40;;;3.50;;
61356;SDS011;47227;46.752;23.576;2023-10-08T03:41:21;9.30;;;3.50;;
61356;SDS011;47227;46.752;23.576;2023-10-08T03:43:56;5.00;;;3.10;;
61356;SDS011;47227;46.752;23.576;2023-10-08T03:46:30;5.10;;;2.70;;
61356;SDS011;47227;46.752;23.576;2023-10-08T03:49:00;8.10;;;3.10;;
61356;SDS011;47227;46.752;23.576;2023-10-08T03:51:33;7.30;;;3.00;;
61356;SDS011;47227;46.752;23.576;2023-10-08T03:54:07;7.10;;;3.20;;
61356;SDS011;47227;46.752;23.576;2023-10-08T03:56:46;8.20;;;2.90;;
61356;SDS011;47227;46.752;23.576;2023-10-08T03:59:18;9.80;;;3.00;;
61356;SDS011;47227;46.752;23.576;2023-10-08T04:02:06;6.40;;;3.00;;
61356;SDS011;47227;46.752;23.576;2023-10-08T04:04:42;7.30;;;3.10;;
61356;SDS011;47227;46.752;23.576;2023-10-08T04:07:25;7.80;;;3.10;;
61356;SDS011;47227;46.752;23.576;2023-10-08T04:10:12;5.30;;;2.90;;
61356;SDS011;47227;46.752;23.576;2023-10-08T04:13:00;6.70;;;3.10;;
61356;SDS011;47227;46.752;23.576;2023-10-08T04:15:28;5.80;;;2.60;;
61356;SDS011;47227;46.752;23.576;2023-10-08T04:17:56;4.60;;;2.70;;
61356;SDS011;47227;46.752;23.576;2023-10-08T04:20:25;4.70;;;2.80;;
61356;SDS011;47227;46.752;23.576;2023-10-08T04:23:02;8.40;;;2.50;;
61356;SDS011;47227;46.752;23.576;2023-10-08T04:25:32;7.60;;;2.90;;
61356;SDS011;47227;46.752;23.576;2023-10-08T04:28:00;5.50;;;3.30;;
61356;SDS011;47227;46.752;23.576;2023-10-08T04:30:32;6.00;;;2.40;;
61356;SDS011;47227;46.752;23.576;2023-10-08T04:33:01;6.30;;;3.20;;
61356;SDS011;47227;46.752;23.576;2023-10-08T04:35:35;3.90;;;2.50;;
61356;SDS011;47227;46.752;23.576;2023-10-08T04:38:04;7.00;;;3.00;;
61356;SDS011;47227;46.752;23.576;2023-10-08T04:40:36;4.00;;;2.60;;
61356;SDS011;47227;46.752;23.576;2023-10-08T04:43:15;6.40;;;2.80;;
61356;SDS011;47227;46.752;23.576;2023-10-08T04:45:54;5.10;;;2.60;;
61356;SDS011;47227;46.752;23.576;2023-10-08T04:48:25;4.90;;;2.70;;
61356;SDS011;47227;46.752;23.576;2023-10-08T04:50:54;4.60;;;2.60;;
61356;SDS011;47227;46.752;23.576;2023-10-08T04:53:30;5.20;;;2.70;;
61356;SDS011;47227;46.752;23.576;2023-10-08T04:56:00;4.90;;;2.60;;
61356;SDS011;47227;46.752;23.576;2023-10-08T04:58:34;5.30;;;2.90;;
61356;SDS011;47227;46.752;23.576;2023-10-08T05:01:04;6.30;;;2.70;;
61356;SDS011;47227;46.752;23.576;2023-10-08T05:03:48;11.10;;;3.40;;
61356;SDS011;47227;46.752;23.576;2023-10-08T05:06:38;6.20;;;3.10;;
61356;SDS011;47227;46.752;23.576;2023-10-08T05:09:17;5.30;;;3.20;;
61356;SDS011;47227;46.752;23.576;2023-10-08T05:11:51;7.30;;;2.90;;
61356;SDS011;47227;46.752;23.576;2023-10-08T05:14:36;7.40;;;2.80;;
61356;SDS011;47227;46.752;23.576;2023-10-08T05:17:13;8.00;;;2.60;;
61356;SDS011;47227;46.752;23.576;2023-10-08T05:20:01;6.20;;;3.40;;
61356;SDS011;47227;46.752;23.576;2023-10-08T05:22:47;10.10;;;3.50;;
61356;SDS011;47227;46.752;23.576;2023-10-08T05:25:23;14.10;;;3.80;;
61356;SDS011;47227;46.752;23.576;2023-10-08T05:28:02;6.50;;;3.40;;
61356;SDS011;47227;46.752;23.576;2023-10-08T05:30:37;6.40;;;3.10;;
61356;SDS011;47227;46.752;23.576;2023-10-08T05:33:06;5.80;;;3.40;;
61356;SDS011;47227;46.752;23.576;2023-10-08T05:35:49;4.10;;;3.00;;
61356;SDS011;47227;46.752;23.576;2023-10-08T05:38:22;5.10;;;3.00;;
61356;SDS011;47227;46.752;23.576;2023-10-08T05:41:06;7.80;;;3.10;;
61356;SDS011;47227;46.752;23.576;2023-10-08T05:43:54;7.40;;;3.00;;
61356;SDS011;47227;46.752;23.576;2023-10-08T05:46:42;5.80;;;3.00;;
61356;SDS011;47227;46.752;23.576;2023-10-08T05:49:21;11.20;;;2.60;;
61356;SDS011;47227;46.752;23.576;2023-10-08T05:52:01;6.00;;;2.90;;
61356;SDS011;47227;46.752;23.576;2023-10-08T05:54:41;7.60;;;3.00;;
61356;SDS011;47227;46.752;23.576;2023-10-08T05:57:21;7.80;;;3.10;;
61356;SDS011;47227;46.752;23.576;2023-10-08T06:00:06;4.90;;;2.80;;
61356;SDS011;47227;46.752;23.576;2023-10-08T06:02:54;8.20;;;2.50;;
61356;SDS011;47227;46.752;23.576;2023-10-08T06:05:42;5.00;;;3.10;;
61356;SDS011;47227;46.752;23.576;2023-10-08T06:08:13;7.50;;;3.20;;
61356;SDS011;47227;46.752;23.576;2023-10-08T06:10:49;5.00;;;2.50;;
61356;SDS011;47227;46.752;23.576;2023-10-08T06:13:25;8.00;;;2.80;;
61356;SDS011;47227;46.752;23.576;2023-10-08T06:15:57;5.40;;;3.10;;
61356;SDS011;47227;46.752;23.576;2023-10-08T06:18:45;4.70;;;2.90;;
61356;SDS011;47227;46.752;23.576;2023-10-08T06:21:13;7.50;;;3.30;;
61356;SDS011;47227;46.752;23.576;2023-10-08T06:23:42;9.50;;;3.20;;
61356;SDS011;47227;46.752;23.576;2023-10-08T06:26:10;9.40;;;3.00;;
61356;SDS011;47227;46.752;23.576;2023-10-08T06:28:43;6.00;;;3.00;;
61356;SDS011;47227;46.752;23.576;2023-10-08T06:31:12;5.90;;;2.90;;
61356;SDS011;47227;46.752;23.576;2023-10-08T06:33:44;8.30;;;3.50;;
61356;SDS011;47227;46.752;23.576;2023-10-08T06:36:12;6.80;;;3.00;;
61356;SDS011;47227;46.752;23.576;2023-10-08T06:38:43;7.20;;;3.40;;
61356;SDS011;47227;46.752;23.576;2023-10-08T06:41:16;10.40;;;3.40;;
61356;SDS011;47227;46.752;23.576;2023-10-08T06:44:04;7.30;;;3.30;;
61356;SDS011;47227;46.752;23.576;2023-10-08T06:46:33;7.30;;;3.60;;
61356;SDS011;47227;46.752;23.576;2023-10-08T06:49:02;10.30;;;3.40;;
61356;SDS011;47227;46.752;23.576;2023-10-08T06:51:33;9.10;;;3.10;;
61356;SDS011;47227;46.752;23.576;2023-10-08T06:54:02;7.20;;;3.50;;
61356;SDS011;47227;46.752;23.576;2023-10-08T06:56:37;10.30;;;3.50;;
61356;SDS011;47227;46.752;23.576;2023-10-08T06:59:05;7.40;;;3.20;;
61356;SDS011;47227;46.752;23.576;2023-10-08T07:01:37;14.50;;;3.30;;
61356;SDS011;47227;46.752;23.576;2023-10-08T07:04:06;9.00;;;3.70;;
61356;SDS011;47227;46.752;23.576;2023-10-08T07:06:40;7.70;;;3.70;;
61356;SDS011;47227;46.752;23.576;2023-10-08T07:09:11;12.00;;;3.40;;
61356;SDS011;47227;46.752;23.576;2023-10-08T07:11:58;8.50;;;3.40;;
61356;SDS011;47227;46.752;23.576;2023-10-08T07:14:33;10.40;;;3.40;;
61356;SDS011;47227;46.752;23.576;2023-10-08T07:17:01;11.30;;;3.00;;
61356;SDS011;47227;46.752;23.576;2023-10-08T07:19:34;10.20;;;3.40;;
61356;SDS011;47227;46.752;23.576;2023-10-08T07:22:08;9.60;;;2.90;;
61356;SDS011;47227;46.752;23.576;2023-10-08T07:24:48;9.80;;;3.80;;
61356;SDS011;47227;46.752;23.576;2023-10-08T07:27:19;14.30;;;4.00;;
61356;SDS011;47227;46.752;23.576;2023-10-08T07:29:58;9.20;;;3.00;;
61356;SDS011;47227;46.752;23.576;2023-10-08T07:32:30;8.90;;;3.40;;
61356;SDS011;47227;46.752;23.576;2023-10-08T07:34:59;9.90;;;3.50;;
61356;SDS011;47227;46.752;23.576;2023-10-08T07:37:47;7.70;;;3.40;;
61356;SDS011;47227;46.752;23.576;2023-10-08T07:40:15;8.00;;;3.70;;
61356;SDS011;47227;46.752;23.576;2023-10-08T07:42:43;6.50;;;3.30;;
61356;SDS011;47227;46.752;23.576;2023-10-08T07:45:12;6.00;;;3.20;;
61356;SDS011;47227;46.752;23.576;2023-10-08T07:47:45;16.10;;;3.60;;
61356;SDS011;47227;46.752;23.576;2023-10-08T07:50:14;9.20;;;3.00;;
61356;SDS011;47227;46.752;23.576;2023-10-08T07:52:43;11.30;;;3.40;;
61356;SDS011;47227;46.752;23.576;2023-10-08T07:55:13;38.80;;;5.00;;
61356;SDS011;47227;46.752;23.576;2023-10-08T07:57:46;8.90;;;3.20;;
61356;SDS011;47227;46.752;23.576;2023-10-08T08:00:14;16.30;;;3.50;;
61356;SDS011;47227;46.752;23.576;2023-10-08T08:02:47;9.70;;;2.90;;
61356;SDS011;47227;46.752;23.576;2023-10-08T08:05:15;9.30;;;3.50;;
61356;SDS011;47227;46.752;23.576;2023-10-08T08:07:44;8.20;;;3.40;;
61356;SDS011;47227;46.752;23.576;2023-10-08T08:10:13;6.80;;;3.10;;
61356;SDS011;47227;46.752;23.576;2023-10-08T08:12:41;14.60;;;3.50;;
61356;SDS011;47227;46.752;23.576;2023-10-08T08:15:09;5.40;;;3.20;;
61356;SDS011;47227;46.752;23.576;2023-10-08T08:17:51;11.80;;;3.30;;
61356;SDS011;47227;46.752;23.576;2023-10-08T08:20:19;10.30;;;3.10;;
61356;SDS011;47227;46.752;23.576;2023-10-08T08:22:50;10.10;;;3.10;;
61356;SDS011;47227;46.752;23.576;2023-10-08T08:25:18;12.70;;;3.10;;
61356;SDS011;47227;46.752;23.576;2023-10-08T08:28:02;16.70;;;3.60;;
61356;SDS011;47227;46.752;23.576;2023-10-08T08:30:34;9.00;;;3.20;;
61356;SDS011;47227;46.752;23.576;2023-10-08T08:33:05;8.50;;;3.30;;
61356;SDS011;47227;46.752;23.576;2023-10-08T08:35:39;9.20;;;2.90;;
61356;SDS011;47227;46.752;23.576;2023-10-08T08:38:07;10.60;;;3.40;;
61356;SDS011;47227;46.752;23.576;2023-10-08T08:40:36;7.80;;;3.00;;
61356;SDS011;47227;46.752;23.576;2023-10-08T08:43:04;7.90;;;2.90;;
61356;SDS011;47227;46.752;23.576;2023-10-08T08:45:33;6.20;;;2.70;;
61356;SDS011;47227;46.752;23.576;2023-10-08T08:48:03;8.30;;;3.10;;
61356;SDS011;47227;46.752;23.576;2023-10-08T08:50:32;9.30;;;2.50;;
61356;SDS011;47227;46.752;23.576;2023-10-08T08:53:02;7.70;;;2.90;;
61356;SDS011;47227;46.752;23.576;2023-10-08T08:55:32;6.30;;;3.10;;
61356;SDS011;47227;46.752;23.576;2023-10-08T08:58:00;9.60;;;3.20;;
61356;SDS011;47227;46.752;23.576;2023-10-08T09:00:32;9.90;;;2.90;;
61356;SDS011;47227;46.752;23.576;2023-10-08T09:03:01;9.70;;;3.10;;
61356;SDS011;47227;46.752;23.576;2023-10-08T09:05:33;10.10;;;3.50;;
61356;SDS011;47227;46.752;23.576;2023-10-08T09:08:04;6.10;;;3.20;;
61356;SDS011;47227;46.752;23.576;2023-10-08T09:10:35;8.10;;;3.70;;
61356;SDS011;47227;46.752;23.576;2023-10-08T09:13:06;7.10;;;2.90;;
61356;SDS011;47227;46.752;23.576;2023-10-08T09:15:37;7.80;;;2.80;;
61356;SDS011;47227;46.752;23.576;2023-10-08T09:18:06;7.20;;;3.10;;
61356;SDS011;47227;46.752;23.576;2023-10-08T09:20:37;7.20;;;2.90;;
61356;SDS011;47227;46.752;23.576;2023-10-08T09:23:16;9.00;;;3.20;;
61356;SDS011;47227;46.752;23.576;2023-10-08T09:25:48;7.00;;;2.80;;
61356;SDS011;47227;46.752;23.576;2023-10-08T09:28:18;11.90;;;2.90;;
61356;SDS011;47227;46.752;23.576;2023-10-08T09:30:46;7.60;;;3.00;;
61356;SDS011;47227;46.752;23.576;2023-10-08T09:33:16;4.60;;;2.50;;
61356;SDS011;47227;46.752;23.576;2023-10-08T09:35:45;8.50;;;3.10;;
61356;SDS011;47227;46.752;23.576;2023-10-08T09:38:14;7.90;;;2.70;;
61356;SDS011;47227;46.752;23.576;2023-10-08T09:40:51;11.90;;;3.00;;
61356;SDS011;47227;46.752;23.576;2023-10-08T09:43:21;9.80;;;3.10;;
61356;SDS011;47227;46.752;23.576;2023-10-08T09:45:53;11.10;;;3.00;;
61356;SDS011;47227;46.752;23.576;2023-10-08T09:48:25;7.50;;;3.80;;
61356;SDS011;47227;46.752;23.576;2023-10-08T09:50:55;7.00;;;2.80;;
61356;SDS011;47227;46.752;23.576;2023-10-08T09:53:30;10.00;;;3.20;;
61356;SDS011;47227;46.752;23.576;2023-10-08T09:56:12;9.10;;;2.90;;
61356;SDS011;47227;46.752;23.576;2023-10-08T09:58:43;14.80;;;3.20;;
61356;SDS011;47227;46.752;23.576;2023-10-08T10:01:11;9.10;;;3.10;;
61356;SDS011;47227;46.752;23.576;2023-10-08T10:03:40;7.50;;;2.70;;
61356;SDS011;47227;46.752;23.576;2023-10-08T10:06:12;9.90;;;3.80;;
61356;SDS011;47227;46.752;23.576;2023-10-08T10:08:43;7.80;;;3.00;;
61356;SDS011;47227;46.752;23.576;2023-10-08T10:11:12;10.40;;;2.90;;
61356;SDS011;47227;46.752;23.576;2023-10-08T10:13:42;25.90;;;3.80;;
61356;SDS011;47227;46.752;23.576;2023-10-08T10:16:21;8.60;;;3.50;;
61356;SDS011;47227;46.752;23.576;2023-10-08T10:18:50;5.30;;;2.70;;
61356;SDS011;47227;46.752;23.576;2023-10-08T10:21:24;21.90;;;3.40;;
61356;SDS011;47227;46.752;23.576;2023-10-08T10:23:53;7.90;;;2.80;;
61356;SDS011;47227;46.752;23.576;2023-10-08T10:26:25;13.00;;;3.50;;
61356;SDS011;47227;46.752;23.576;2023-10-08T10:32:00;7.20;;;2.90;;
61356;SDS011;47227;46.752;23.576;2023-10-08T10:34:29;23.60;;;3.90;;
61356;SDS011;47227;46.752;23.576;2023-10-08T10:36:58;14.30;;;3.50;;
61356;SDS011;47227;46.752;23.576;2023-10-08T10:39:30;6.90;;;3.00;;
61356;SDS011;47227;46.752;23.576;2023-10-08T10:42:02;15.80;;;3.50;;
61356;SDS011;47227;46.752;23.576;2023-10-08T10:44:33;11.20;;;3.60;;
61356;SDS011;47227;46.752;23.576;2023-10-08T10:47:04;11.90;;;3.50;;
61356;SDS011;47227;46.752;23.576;2023-10-08T10:49:51;8.70;;;3.40;;
61356;SDS011;47227;46.752;23.576;2023-10-08T10:52:22;12.00;;;3.30;;
61356;SDS011;47227;46.752;23.576;2023-10-08T10:55:11;14.90;;;3.80;;
61356;SDS011;47227;46.752;23.576;2023-10-08T10:57:50;10.70;;;3.80;;
61356;SDS011;47227;46.752;23.576;2023-10-08T11:00:25;9.50;;;3.30;;
61356;SDS011;47227;46.752;23.576;2023-10-08T11:03:14;9.60;;;3.60;;
61356;SDS011;47227;46.752;23.576;2023-10-08T11:05:45;11.90;;;3.90;;
61356;SDS011;47227;46.752;23.576;2023-10-08T11:08:19;7.40;;;2.80;;
61356;SDS011;47227;46.752;23.576;2023-10-08T11:10:51;12.60;;;3.20;;
61356;SDS011;47227;46.752;23.576;2023-10-08T11:13:21;8.90;;;3.10;;
61356;SDS011;47227;46.752;23.576;2023-10-08T11:15:56;8.90;;;3.40;;
61356;SDS011;47227;46.752;23.576;2023-10-08T11:18:26;10.70;;;3.20;;
61356;SDS011;47227;46.752;23.576;2023-10-08T11:21:05;13.00;;;3.50;;
61356;SDS011;47227;46.752;23.576;2023-10-08T11:23:45;11.90;;;3.70;;
61356;SDS011;47227;46.752;23.576;2023-10-08T11:26:23;7.30;;;3.20;;
61356;SDS011;47227;46.752;23.576;2023-10-08T11:29:01;12.20;;;3.40;;
61356;SDS011;47227;46.752;23.576;2023-10-08T11:31:31;12.50;;;3.70;;
61356;SDS011;47227;46.752;23.576;2023-10-08T11:34:02;13.50;;;3.80;;
61356;SDS011;47227;46.752;23.576;2023-10-08T11:36:37;11.20;;;3.50;;
61356;SDS011;47227;46.752;23.576;2023-10-08T11:39:23;4.90;;;3.10;;
61356;SDS011;47227;46.752;23.576;2023-10-08T11:41:57;8.80;;;3.90;;
61356;SDS011;47227;46.752;23.576;2023-10-08T11:44:31;7.40;;;3.30;;
61356;SDS011;47227;46.752;23.576;2023-10-08T11:47:05;9.90;;;2.70;;
61356;SDS011;47227;46.752;23.576;2023-10-08T11:49:40;8.80;;;2.30;;
61356;SDS011;47227;46.752;23.576;2023-10-08T11:52:17;10.40;;;1.70;;
61356;SDS011;47227;46.752;23.576;2023-10-08T11:54:49;3.20;;;1.50;;
61356;SDS011;47227;46.752;23.576;2023-10-08T11:57:21;6.40;;;1.50;;
61356;SDS011;47227;46.752;23.576;2023-10-08T11:59:50;4.10;;;1.80;;
61356;SDS011;47227;46.752;23.576;2023-10-08T12:02:23;3.20;;;1.50;;
61356;SDS011;47227;46.752;23.576;2023-10-08T12:04:51;4.30;;;1.50;;
61356;SDS011;47227;46.752;23.576;2023-10-08T12:07:19;7.50;;;1.80;;
61356;SDS011;47227;46.752;23.576;2023-10-08T12:09:47;4.40;;;1.50;;
61356;SDS011;47227;46.752;23.576;2023-10-08T12:12:16;5.40;;;1.50;;
61356;SDS011;47227;46.752;23.576;2023-10-08T12:14:50;5.00;;;1.30;;
61356;SDS011;47227;46.752;23.576;2023-10-08T12:17:22;3.60;;;1.40;;
61356;SDS011;47227;46.752;23.576;2023-10-08T12:20:05;2.70;;;1.20;;
61356;SDS011;47227;46.752;23.576;2023-10-08T12:22:51;3.20;;;1.30;;
61356;SDS011;47227;46.752;23.576;2023-10-08T12:25:19;2.40;;;1.10;;
61356;SDS011;47227;46.752;23.576;2023-10-08T12:27:47;5.10;;;1.70;;
61356;SDS011;47227;46.752;23.576;2023-10-08T12:30:17;2.20;;;1.00;;
61356;SDS011;47227;46.752;23.576;2023-10-08T12:32:45;4.10;;;1.50;;
61356;SDS011;47227;46.752;23.576;2023-10-08T12:35:14;2.20;;;1.20;;
61356;SDS011;47227;46.752;23.576;2023-10-08T12:37:42;2.80;;;1.30;;
61356;SDS011;47227;46.752;23.576;2023-10-08T12:40:13;3.20;;;1.30;;
61356;SDS011;47227;46.752;23.576;2023-10-08T12:42:51;3.10;;;1.30;;
61356;SDS011;47227;46.752;23.576;2023-10-08T12:45:20;4.60;;;1.50;;
61356;SDS011;47227;46.752;23.576;2023-10-08T12:47:48;2.10;;;1.30;;
61356;SDS011;47227;46.752;23.576;2023-10-08T12:50:18;3.20;;;1.80;;
61356;SDS011;47227;46.752;23.576;2023-10-08T12:52:57;1.70;;;1.30;;
61356;SDS011;47227;46.752;23.576;2023-10-08T12:55:31;6.80;;;1.60;;
61356;SDS011;47227;46.752;23.576;2023-10-08T12:58:06;5.10;;;1.50;;
61356;SDS011;47227;46.752;23.576;2023-10-08T13:00:38;2.60;;;1.70;;
61356;SDS011;47227;46.752;23.576;2023-10-08T13:03:09;3.30;;;1.40;;
61356;SDS011;47227;46.752;23.576;2023-10-08T13:05:53;4.10;;;1.60;;
61356;SDS011;47227;46.752;23.576;2023-10-08T13:08:21;3.30;;;1.40;;
61356;SDS011;47227;46.752;23.576;2023-10-08T13:10:49;2.50;;;1.40;;
61356;SDS011;47227;46.752;23.576;2023-10-08T13:13:19;3.00;;;1.20;;
61356;SDS011;47227;46.752;23.576;2023-10-08T13:15:47;2.50;;;1.50;;
61356;SDS011;47227;46.752;23.576;2023-10-08T13:18:15;1.40;;;0.90;;
61356;SDS011;47227;46.752;23.576;2023-10-08T13:20:43;1.90;;;1.10;;
61356;SDS011;47227;46.752;23.576;2023-10-08T13:23:12;1.90;;;0.80;;
61356;SDS011;47227;46.752;23.576;2023-10-08T13:25:40;2.30;;;1.10;;
61356;SDS011;47227;46.752;23.576;2023-10-08T13:28:08;2.90;;;0.70;;
61356;SDS011;47227;46.752;23.576;2023-10-08T13:30:39;0.70;;;0.60;;
61356;SDS011;47227;46.752;23.576;2023-10-08T13:33:07;0.80;;;0.50;;
61356;SDS011;47227;46.752;23.576;2023-10-08T13:35:37;0.80;;;0.70;;
61356;SDS011;47227;46.752;23.576;2023-10-08T13:38:06;1.00;;;0.70;;
61356;SDS011;47227;46.752;23.576;2023-10-08T13:40:37;0.80;;;0.60;;
61356;SDS011;47227;46.752;23.576;2023-10-08T13:43:11;0.50;;;0.40;;
61356;SDS011;47227;46.752;23.576;2023-10-08T13:45:39;2.10;;;0.50;;
61356;SDS011;47227;46.752;23.576;2023-10-08T13:48:07;0.80;;;0.30;;
61356;SDS011;47227;46.752;23.576;2023-10-08T13:50:41;0.20;;;0.20;;
61356;SDS011;47227;46.752;23.576;2023-10-08T13:53:09;1.90;;;0.50;;
61356;SDS011;47227;46.752;23.576;2023-10-08T13:55:37;0.70;;;0.40;;
61356;SDS011;47227;46.752;23.576;2023-10-08T13:58:05;0.30;;;0.30;;
61356;SDS011;47227;46.752;23.576;2023-10-08T14:00:35;0.30;;;0.30;;
61356;SDS011;47227;46.752;23.576;2023-10-08T14:03:03;0.70;;;0.40;;
61356;SDS011;47227;46.752;23.576;2023-10-08T14:05:36;0.90;;;0.40;;
61356;SDS011;47227;46.752;23.576;2023-10-08T14:08:05;0.50;;;0.30;;
61356;SDS011;47227;46.752;23.576;2023-10-08T14:10:39;1.60;;;0.40;;
61356;SDS011;47227;46.752;23.576;2023-10-08T14:13:11;0.90;;;0.40;;
61356;SDS011;47227;46.752;23.576;2023-10-08T14:15:39;1.10;;;0.30;;
61356;SDS011;47227;46.752;23.576;2023-10-08T14:18:14;0.40;;;0.40;;
61356;SDS011;47227;46.752;23.576;2023-10-08T14:20:45;0.50;;;0.30;;
61356;SDS011;47227;46.752;23.576;2023-10-08T14:23:14;0.50;;;0.40;;
61356;SDS011;47227;46.752;23.576;2023-10-08T14:25:44;0.50;;;0.20;;
61356;SDS011;47227;46.752;23.576;2023-10-08T14:28:13;0.20;;;0.20;;
61356;SDS011;47227;46.752;23.576;2023-10-08T14:30:49;0.30;;;0.30;;
61356;SDS011;47227;46.752;23.576;2023-10-08T14:33:23;0.60;;;0.40;;
61356;SDS011;47227;46.752;23.576;2023-10-08T14:35:54;0.50;;;0.40;;
61356;SDS011;47227;46.752;23.576;2023-10-08T14:38:34;0.50;;;0.40;;
61356;SDS011;47227;46.752;23.576;2023-10-08T14:41:14;1.70;;;0.40;;
61356;SDS011;47227;46.752;23.576;2023-10-08T14:43:54;0.30;;;0.30;;
61356;SDS011;47227;46.752;23.576;2023-10-08T14:46:22;1.80;;;0.40;;
61356;SDS011;47227;46.752;23.576;2023-10-08T14:48:51;0.30;;;0.30;;
61356;SDS011;47227;46.752;23.576;2023-10-08T14:51:20;0.60;;;0.50;;
61356;SDS011;47227;46.752;23.576;2023-10-08T14:53:48;1.10;;;0.50;;
61356;SDS011;47227;46.752;23.576;2023-10-08T14:56:16;0.50;;;0.40;;
61356;SDS011;47227;46.752;23.576;2023-10-08T14:58:46;0.30;;;0.30;;
61356;SDS011;47227;46.752;23.576;2023-10-08T15:01:15;0.80;;;0.40;;
61356;SDS011;47227;46.752;23.576;2023-10-08T15:03:43;0.70;;;0.70;;
61356;SDS011;47227;46.752;23.576;2023-10-08T15:06:14;1.10;;;0.50;;
61356;SDS011;47227;46.752;23.576;2023-10-08T15:08:42;0.40;;;0.40;;
61356;SDS011;47227;46.752;23.576;2023-10-08T15:11:10;0.60;;;0.50;;